createdAt,value
2018-12-24T00:01:34.522Z,12.47
2018-12-24T00:04:03.023Z,10.00
2018-12-24T00:06:31.529Z,11.10
2018-12-24T00:09:00.010Z,12.13
2018-12-24T00:11:28.500Z,14.37
2018-12-24T00:14:16.234Z,12.10
2018-12-24T00:16:44.743Z,10.33
2018-12-24T00:19:13.222Z,15.60
2018-12-24T00:22:01.050Z,11.80
2018-12-24T00:24:29.526Z,10.93
2018-12-24T00:26:58.031Z,12.60
2018-12-24T00:29:45.750Z,9.40
2018-12-24T00:32:14.415Z,9.20
2018-12-24T00:35:02.052Z,9.77
2018-12-24T00:37:30.611Z,8.10
2018-12-24T00:39:59.083Z,6.87
2018-12-24T00:42:46.830Z,10.80
2018-12-24T00:48:02.838Z,7.93
2018-12-24T00:50:31.466Z,9.07
2018-12-24T00:53:00.043Z,10.63
2018-12-24T00:55:47.762Z,7.17
2018-12-24T00:58:35.494Z,9.47
2018-12-24T01:01:03.989Z,11.00
2018-12-24T01:03:32.468Z,7.03
2018-12-24T01:06:20.066Z,6.90
2018-12-24T01:09:07.883Z,7.27
2018-12-24T01:11:36.362Z,19.33
2018-12-24T01:14:23.963Z,8.43
2018-12-24T01:16:52.438Z,8.73
2018-12-24T01:19:20.927Z,12.63
2018-12-24T01:22:08.563Z,7.30
2018-12-24T01:24:37.033Z,5.87
2018-12-24T01:27:24.769Z,8.47
2018-12-24T01:29:53.236Z,6.47
2018-12-24T01:32:21.722Z,6.50
2018-12-24T01:35:09.436Z,8.13
2018-12-24T01:37:37.950Z,8.53
2018-12-24T01:42:53.871Z,9.90
2018-12-24T01:45:22.355Z,10.23
2018-12-24T01:47:50.849Z,12.10
2018-12-24T01:50:38.446Z,14.80
2018-12-24T01:53:26.048Z,13.23
2018-12-24T01:55:54.521Z,12.60
2018-12-24T01:58:23.006Z,15.00
2018-12-24T02:01:10.598Z,10.87
2018-12-24T02:03:39.090Z,10.20
2018-12-24T02:06:26.809Z,8.87
2018-12-24T02:09:14.410Z,10.20
2018-12-24T02:11:42.890Z,12.77
2018-12-24T02:14:30.485Z,9.53
2018-12-24T02:16:58.963Z,11.40
2018-12-24T02:19:46.562Z,14.30
2018-12-24T02:22:34.171Z,9.53
2018-12-24T02:25:02.659Z,13.30
2018-12-24T02:27:31.140Z,12.20
2018-12-24T02:29:59.625Z,15.13
2018-12-24T02:32:47.348Z,10.63
2018-12-24T02:35:35.083Z,15.83
2018-12-24T02:38:03.571Z,13.73
2018-12-24T02:40:51.301Z,11.83
2018-12-24T02:43:39.039Z,11.97
2018-12-24T02:46:07.519Z,13.20
2018-12-24T02:48:55.266Z,12.73
2018-12-24T02:51:23.739Z,13.80
2018-12-24T02:53:52.220Z,9.00
2018-12-24T02:56:40.038Z,12.30
2018-12-24T03:01:43.055Z,10.80
2018-12-24T03:04:11.533Z,10.87
2018-12-24T03:06:40.001Z,9.27
2018-12-24T03:11:42.213Z,13.37
2018-12-24T03:14:30.047Z,12.20
2018-12-24T03:16:58.521Z,9.23
2018-12-24T03:19:46.117Z,9.27
2018-12-24T03:25:40.623Z,10.77
2018-12-24T03:28:28.363Z,11.00
2018-12-24T03:30:56.899Z,13.30
2018-12-24T03:33:44.447Z,11.03
2018-12-24T03:36:32.049Z,11.20
2018-12-24T03:39:19.646Z,14.10
2018-12-24T03:42:07.465Z,12.43
2018-12-24T03:44:55.199Z,12.77
2018-12-24T03:47:23.671Z,12.67
2018-12-24T03:50:11.405Z,12.87
2018-12-24T03:52:39.892Z,14.30
2018-12-24T03:57:42.188Z,11.70
2018-12-24T04:00:30.102Z,14.90
2018-12-24T04:03:19.412Z,10.23
2018-12-24T04:05:47.906Z,11.97
2018-12-24T04:11:09.561Z,9.83
2018-12-24T04:13:57.165Z,10.00
2018-12-24T04:16:25.647Z,12.53
2018-12-24T04:18:54.129Z,11.70
2018-12-24T04:21:41.945Z,10.87
2018-12-24T04:24:29.544Z,9.33
2018-12-24T04:27:17.264Z,9.33
2018-12-24T04:30:04.857Z,8.60
2018-12-24T04:32:52.457Z,9.67
2018-12-24T04:35:40.180Z,9.53
2018-12-24T04:38:08.651Z,6.03
2018-12-24T04:40:56.476Z,5.50
2018-12-24T04:43:32.243Z,6.40
2018-12-24T04:46:14.279Z,6.23
2018-12-24T04:48:43.049Z,5.40
2018-12-24T04:51:11.533Z,4.93
2018-12-24T04:53:59.257Z,6.20
2018-12-24T04:56:27.732Z,4.70
2018-12-24T04:59:15.458Z,4.23
2018-12-24T05:01:43.931Z,4.20
2018-12-24T05:04:12.412Z,6.70
2018-12-24T05:09:47.664Z,3.23
2018-12-24T05:12:16.141Z,4.90
2018-12-24T05:17:18.444Z,4.40
2018-12-24T05:19:46.927Z,4.73
2018-12-24T05:22:15.406Z,8.03
2018-12-24T05:24:43.886Z,5.63
2018-12-24T05:27:31.624Z,4.77
2018-12-24T05:30:00.138Z,5.33
2018-12-24T05:32:28.650Z,5.23
2018-12-24T05:34:57.185Z,5.40
2018-12-24T05:37:44.766Z,5.10
2018-12-24T05:40:13.251Z,5.90
2018-12-24T05:42:41.764Z,5.90
2018-12-24T05:45:10.268Z,6.50
2018-12-24T05:47:38.770Z,5.80
2018-12-24T05:50:26.455Z,7.00
2018-12-24T05:53:14.157Z,6.40
2018-12-24T05:56:01.884Z,5.30
2018-12-24T05:58:30.354Z,6.40
2018-12-24T06:03:34.128Z,6.10
2018-12-24T06:06:02.613Z,6.20
2018-12-24T06:11:37.869Z,4.17
2018-12-24T06:14:06.346Z,4.53
2018-12-24T06:19:08.765Z,4.60
2018-12-24T06:21:56.366Z,4.73
2018-12-24T06:24:44.083Z,4.97
2018-12-24T06:27:31.814Z,5.20
2018-12-24T06:30:00.285Z,5.40
2018-12-24T06:32:28.772Z,4.73
2018-12-24T06:34:57.242Z,5.63
2018-12-24T06:37:44.972Z,9.97
2018-12-24T06:40:32.835Z,5.63
2018-12-24T06:43:01.316Z,6.47
2018-12-24T06:45:29.797Z,7.00
2018-12-24T06:47:58.270Z,7.37
2018-12-24T06:50:46.001Z,7.60
2018-12-24T06:53:14.471Z,9.10
2018-12-24T06:55:42.955Z,6.30
2018-12-24T06:58:11.427Z,6.63
2018-12-24T07:00:59.161Z,4.60
2018-12-24T07:03:27.633Z,3.73
2018-12-24T07:08:30.589Z,4.07
2018-12-24T07:11:18.549Z,3.80
2018-12-24T07:14:06.270Z,3.50
2018-12-24T07:16:34.759Z,5.77
2018-12-24T07:19:22.477Z,4.97
2018-12-24T07:22:10.077Z,6.30
2018-12-24T07:24:57.669Z,4.63
2018-12-24T07:28:06.061Z,5.40
2018-12-24T07:33:41.105Z,4.50
2018-12-24T07:36:09.585Z,4.60
2018-12-24T07:38:57.404Z,4.53
2018-12-24T07:41:45.128Z,4.77
2018-12-24T07:44:32.724Z,4.30
2018-12-24T07:47:01.205Z,3.13
2018-12-24T07:49:49.041Z,3.60
2018-12-24T07:52:17.577Z,4.60
2018-12-24T07:55:05.229Z,2.87
2018-12-24T07:57:33.708Z,3.27
2018-12-24T08:00:02.192Z,4.30
2018-12-24T08:02:49.786Z,4.10
2018-12-24T08:05:18.256Z,4.40
2018-12-24T08:07:46.739Z,4.40
2018-12-24T08:13:21.766Z,3.60
2018-12-24T08:15:50.237Z,8.60
2018-12-24T08:18:18.721Z,3.27
2018-12-24T08:20:47.502Z,3.10
2018-12-24T08:23:36.520Z,2.83
2018-12-24T08:26:24.114Z,3.27
2018-12-24T08:29:11.708Z,4.93
2018-12-24T08:31:59.308Z,4.00
2018-12-24T08:34:27.778Z,6.10
2018-12-24T08:37:15.616Z,4.23
2018-12-24T08:40:03.334Z,4.60
2018-12-24T08:42:31.815Z,8.13
2018-12-24T08:47:47.735Z,5.07
2018-12-24T08:50:35.323Z,4.37
2018-12-24T08:53:23.049Z,5.63
2018-12-24T08:55:51.527Z,5.50
2018-12-24T08:58:39.125Z,5.53
2018-12-24T09:01:26.714Z,6.20
2018-12-24T09:03:55.195Z,4.27
2018-12-24T09:06:42.993Z,2.47
2018-12-24T09:12:18.024Z,2.93
2018-12-24T09:14:50.294Z,2.77
2018-12-24T09:19:50.841Z,4.33
2018-12-24T09:22:38.445Z,2.80
2018-12-24T09:25:06.928Z,3.03
2018-12-24T09:30:49.213Z,3.30
2018-12-24T09:33:37.098Z,3.30
2018-12-24T09:36:05.583Z,3.10
2018-12-24T09:38:34.063Z,2.70
2018-12-24T09:44:09.410Z,2.80
2018-12-24T09:46:37.886Z,2.43
2018-12-24T09:49:25.564Z,3.43
2018-12-24T09:54:41.413Z,2.70
2018-12-24T09:57:29.242Z,3.67
2018-12-24T10:00:16.968Z,2.93
2018-12-24T10:03:25.421Z,4.20
2018-12-24T10:09:00.680Z,4.07
2018-12-24T10:11:29.162Z,7.33
2018-12-24T10:14:16.894Z,8.00
2018-12-24T10:16:45.366Z,5.70
2018-12-24T10:19:13.852Z,7.37
2018-12-24T10:22:01.577Z,5.47
2018-12-24T10:24:30.062Z,3.83
2018-12-24T10:26:58.544Z,4.63
2018-12-24T10:30:06.938Z,3.70
2018-12-24T10:32:54.538Z,5.00
2018-12-24T10:35:42.259Z,3.60
2018-12-24T10:38:10.754Z,4.17
2018-12-24T10:41:19.156Z,3.60
2018-12-24T10:43:47.644Z,3.53
2018-12-24T10:46:16.117Z,3.40
2018-12-24T10:51:38.092Z,4.20
2018-12-24T10:54:25.838Z,4.10
2018-12-24T10:57:13.429Z,3.60
2018-12-24T11:00:01.165Z,3.83
2018-12-24T11:02:48.885Z,4.37
2018-12-24T11:05:36.713Z,4.73
2018-12-24T11:08:24.323Z,4.13
2018-12-24T11:11:11.920Z,3.60
2018-12-24T11:13:59.656Z,3.63
2018-12-24T11:16:47.378Z,3.90
2018-12-24T11:19:34.978Z,3.30
2018-12-24T11:22:03.454Z,3.47
2018-12-24T11:24:31.935Z,3.70
2018-12-24T11:27:19.653Z,3.80
2018-12-24T11:30:07.477Z,3.97
2018-12-24T11:32:55.073Z,5.10
2018-12-24T11:35:23.557Z,3.33
2018-12-24T11:37:52.029Z,3.97
2018-12-24T11:40:39.650Z,10.23
2018-12-24T11:43:27.472Z,4.13
2018-12-24T11:46:15.066Z,4.63
2018-12-24T11:48:43.555Z,3.70
2018-12-24T11:51:12.024Z,3.67
2018-12-24T11:53:40.542Z,3.73
2018-12-24T11:56:28.356Z,3.53
2018-12-24T11:58:56.841Z,2.90
2018-12-24T12:01:44.656Z,3.70
2018-12-24T12:04:32.483Z,3.67
2018-12-24T12:07:20.071Z,3.40
2018-12-24T12:09:48.558Z,3.17
2018-12-24T12:12:17.037Z,5.23
2018-12-24T12:15:04.772Z,3.20
2018-12-24T12:17:33.248Z,2.50
2018-12-24T12:20:22.839Z,3.00
2018-12-24T12:22:51.186Z,3.17
2018-12-24T12:25:19.780Z,3.07
2018-12-24T12:27:48.237Z,4.27
2018-12-24T12:30:16.723Z,3.57
2018-12-24T12:32:45.195Z,3.23
2018-12-24T12:38:07.394Z,3.07
2018-12-24T12:40:35.880Z,3.33
2018-12-24T12:43:23.596Z,3.40
2018-12-24T12:46:04.386Z,3.30
2018-12-24T12:48:51.973Z,2.90
2018-12-24T12:51:20.461Z,2.97
2018-12-24T12:54:08.260Z,4.90
2018-12-24T12:56:56.080Z,2.83
2018-12-24T12:59:24.553Z,3.53
2018-12-24T13:02:12.383Z,2.53
2018-12-24T13:05:00.222Z,3.10
2018-12-24T13:07:48.032Z,3.07
2018-12-24T13:10:16.517Z,2.70
2018-12-24T13:12:44.986Z,2.97
2018-12-24T13:15:32.591Z,3.47
2018-12-24T13:20:48.497Z,3.17
2018-12-24T13:23:36.091Z,6.00
2018-12-24T13:28:58.412Z,3.03
2018-12-24T13:31:26.893Z,4.20
2018-12-24T13:34:14.612Z,3.00
2018-12-24T13:37:02.340Z,3.43
2018-12-24T13:39:49.929Z,3.00
2018-12-24T13:42:18.418Z,2.80
2018-12-24T13:44:46.888Z,3.37
2018-12-24T13:47:34.619Z,3.00
2018-12-24T13:53:11.178Z,3.37
2018-12-24T13:55:47.189Z,3.73
2018-12-24T13:58:34.915Z,2.73
2018-12-24T14:01:22.647Z,3.10
2018-12-24T14:04:10.238Z,3.20
2018-12-24T14:06:57.970Z,8.60
2018-12-24T14:09:26.437Z,3.67
2018-12-24T14:11:54.920Z,3.23
2018-12-24T14:14:42.640Z,3.43
2018-12-24T14:17:11.121Z,4.60
2018-12-24T14:19:39.596Z,3.63
2018-12-24T14:22:08.082Z,10.60
2018-12-24T14:24:55.670Z,5.50
2018-12-24T14:27:24.151Z,4.80
2018-12-24T14:30:11.768Z,4.07
2018-12-24T14:33:20.132Z,4.07
2018-12-24T14:36:07.722Z,7.57
2018-12-24T14:38:55.325Z,3.87
2018-12-24T14:41:24.148Z,4.03
2018-12-24T14:44:11.746Z,3.90
2018-12-24T14:46:40.225Z,4.00
2018-12-24T14:49:27.817Z,4.63
2018-12-24T14:51:56.302Z,3.73
2018-12-24T14:54:24.770Z,4.40
2018-12-24T14:57:12.504Z,3.77
2018-12-24T14:59:40.989Z,4.77
2018-12-24T15:02:28.718Z,5.67
2018-12-24T15:05:16.437Z,6.97
2018-12-24T15:07:45.022Z,5.40
2018-12-24T15:10:32.715Z,4.40
2018-12-24T15:13:01.206Z,5.43
2018-12-24T15:18:17.121Z,8.30
2018-12-24T15:23:33.044Z,5.37
2018-12-24T15:26:01.513Z,4.87
2018-12-24T15:28:29.993Z,5.60
2018-12-24T15:31:17.818Z,10.70
2018-12-24T15:34:05.413Z,6.27
2018-12-24T15:36:53.016Z,5.50
2018-12-24T15:42:16.549Z,5.27
2018-12-24T15:47:19.404Z,6.20
2018-12-24T15:52:40.825Z,5.67
2018-12-24T15:55:28.568Z,4.50
2018-12-24T15:57:57.041Z,6.67
2018-12-24T16:00:44.868Z,8.03
2018-12-24T16:03:13.348Z,9.73
2018-12-24T16:05:41.832Z,5.40
2018-12-24T16:10:57.745Z,9.80
2018-12-24T16:13:26.225Z,7.80
2018-12-24T16:15:54.704Z,10.30
2018-12-24T16:18:42.299Z,6.77
2018-12-24T16:23:58.213Z,7.60
2018-12-24T16:26:45.937Z,6.77
2018-12-24T16:29:33.672Z,9.27
2018-12-24T16:32:21.389Z,8.67
2018-12-24T16:35:09.224Z,8.40
2018-12-24T16:40:44.388Z,8.10
2018-12-24T16:43:32.192Z,11.33
2018-12-24T16:46:19.783Z,8.30
2018-12-24T16:49:07.517Z,8.13
2018-12-24T16:51:36.010Z,8.83
2018-12-24T16:54:23.835Z,7.40
2018-12-24T16:57:11.560Z,9.50
2018-12-24T16:59:40.038Z,8.03
2018-12-24T17:02:27.843Z,11.20
2018-12-24T17:04:56.327Z,9.70
2018-12-24T17:10:12.243Z,13.30
2018-12-24T17:12:40.818Z,8.80
2018-12-24T17:15:28.521Z,8.33
2018-12-24T17:20:44.449Z,11.23
2018-12-24T17:23:32.176Z,10.13
2018-12-24T17:26:00.653Z,8.77
2018-12-24T17:28:29.134Z,10.97
2018-12-24T17:31:16.870Z,11.23
2018-12-24T17:34:04.481Z,19.67
2018-12-24T17:36:32.958Z,22.63
2018-12-24T17:39:01.448Z,18.73
2018-12-24T17:41:29.923Z,17.90
2018-12-24T17:44:17.525Z,14.23
2018-12-24T17:47:05.118Z,9.57
2018-12-24T17:49:33.601Z,10.83
2018-12-24T17:52:02.085Z,10.20
2018-12-24T17:54:30.573Z,11.27
2018-12-24T17:56:59.066Z,15.20
2018-12-24T17:59:27.543Z,13.40
2018-12-24T18:07:18.165Z,10.43
2018-12-24T18:09:46.655Z,13.40
2018-12-24T18:12:34.377Z,14.77
2018-12-24T18:15:02.869Z,10.57
2018-12-24T18:17:50.683Z,15.20
2018-12-24T18:20:38.413Z,14.43
2018-12-24T18:23:06.894Z,23.33
2018-12-24T18:25:35.387Z,20.27
2018-12-24T18:28:23.116Z,25.87
2018-12-24T18:31:10.857Z,51.80
2018-12-24T18:33:39.333Z,21.00
2018-12-24T18:36:07.826Z,18.83
2018-12-24T18:38:55.424Z,16.50
2018-12-24T18:41:23.911Z,14.07
2018-12-24T18:46:58.954Z,14.73
2018-12-24T18:49:46.674Z,14.90
2018-12-24T18:52:34.404Z,13.70
2018-12-24T18:55:02.881Z,18.57
2018-12-24T18:57:31.368Z,8.63
2018-12-24T18:59:59.846Z,13.43
2018-12-24T19:02:47.447Z,9.97
2018-12-24T19:05:16.089Z,13.50
2018-12-24T19:07:44.574Z,24.27
2018-12-24T19:10:32.295Z,8.50
2018-12-24T19:13:00.782Z,6.77
2018-12-24T19:15:48.502Z,16.70
2018-12-24T19:18:16.989Z,8.93
2018-12-24T19:21:04.607Z,7.23
2018-12-24T19:23:52.330Z,5.27
2018-12-24T19:26:39.958Z,7.70
2018-12-24T19:29:27.545Z,4.50
2018-12-24T19:31:56.025Z,4.97
2018-12-24T19:34:24.500Z,8.60
2018-12-24T19:36:52.980Z,8.20
2018-12-24T19:42:08.889Z,5.70
2018-12-24T19:44:37.367Z,9.33
2018-12-24T19:47:05.851Z,6.90
2018-12-24T19:49:53.566Z,6.30
2018-12-24T19:52:22.045Z,5.07
2018-12-24T19:55:09.637Z,5.90
2018-12-24T19:57:38.122Z,7.53
2018-12-24T20:00:46.505Z,5.33
2018-12-24T20:03:14.985Z,5.47
2018-12-24T20:06:02.704Z,7.27
2018-12-24T20:08:31.186Z,3.90
2018-12-24T20:11:19.004Z,5.57
2018-12-24T20:13:47.493Z,12.03
2018-12-24T20:16:15.964Z,4.70
2018-12-24T20:18:44.445Z,3.63
2018-12-24T20:21:12.918Z,7.00
2018-12-24T20:23:41.407Z,11.33
2018-12-24T20:26:28.999Z,6.23
2018-12-24T20:29:16.600Z,12.90
2018-12-24T20:34:32.810Z,9.53
2018-12-24T20:37:20.497Z,12.00
2018-12-24T20:39:48.982Z,7.50
2018-12-24T20:42:36.572Z,5.43
2018-12-24T20:45:44.973Z,6.80
2018-12-24T20:48:13.450Z,5.53
2018-12-24T20:50:41.928Z,10.30
2018-12-24T20:53:10.404Z,5.90
2018-12-24T20:55:38.884Z,6.60
2018-12-24T20:58:26.607Z,5.10
2018-12-24T21:00:55.086Z,5.90
2018-12-24T21:03:42.908Z,4.30
2018-12-24T21:06:30.634Z,5.97
2018-12-24T21:09:18.234Z,4.70
2018-12-24T21:11:46.706Z,7.53
2018-12-24T21:14:15.185Z,5.70
2018-12-24T21:17:02.776Z,5.70
2018-12-24T21:19:50.443Z,11.37
2018-12-24T21:25:25.714Z,3.20
2018-12-24T21:28:13.315Z,7.63
2018-12-24T21:30:41.798Z,3.37
2018-12-24T21:33:29.392Z,6.20
2018-12-24T21:35:57.879Z,2.90
2018-12-24T21:41:32.913Z,3.53
2018-12-24T21:44:01.399Z,2.27
2018-12-24T21:46:29.870Z,4.37
2018-12-24T21:49:17.473Z,5.00
2018-12-24T21:51:45.943Z,3.10
2018-12-24T21:54:33.545Z,3.87
2018-12-24T22:00:10.101Z,4.70
2018-12-24T22:02:38.577Z,4.90
2018-12-24T22:05:26.319Z,4.43
2018-12-24T22:07:54.793Z,8.07
2018-12-24T22:10:42.393Z,3.37
2018-12-24T22:13:10.865Z,2.90
2018-12-24T22:15:58.468Z,9.73
2018-12-24T22:18:46.191Z,2.40
2018-12-24T22:21:14.673Z,8.10
2018-12-24T22:23:43.146Z,6.03
2018-12-24T22:26:30.876Z,6.10
2018-12-24T22:29:18.601Z,7.70
2018-12-24T22:32:06.334Z,2.30
2018-12-24T22:34:34.810Z,2.50
2018-12-24T22:39:37.021Z,10.90
2018-12-24T22:42:05.502Z,4.43
2018-12-24T22:44:33.974Z,4.40
2018-12-24T22:47:02.458Z,5.27
2018-12-24T22:49:30.925Z,5.30
2018-12-24T22:52:18.654Z,2.20
2018-12-24T22:55:06.477Z,6.20
2018-12-24T22:57:54.201Z,10.43
2018-12-24T23:03:01.620Z,3.10
2018-12-24T23:05:30.096Z,2.83
2018-12-24T23:08:17.689Z,4.00
2018-12-24T23:10:46.170Z,8.33
2018-12-24T23:13:14.645Z,5.10
2018-12-24T23:16:02.244Z,2.47
2018-12-24T23:18:49.889Z,2.60
2018-12-24T23:23:52.468Z,4.57
2018-12-24T23:26:40.198Z,2.47
2018-12-24T23:31:56.114Z,5.53
2018-12-24T23:34:43.838Z,4.37
2018-12-24T23:37:31.563Z,1.63
2018-12-24T23:40:00.092Z,6.40
2018-12-24T23:42:28.710Z,1.50
2018-12-24T23:44:57.181Z,5.57
2018-12-24T23:47:45.008Z,4.90
2018-12-24T23:52:47.823Z,3.40
2018-12-24T23:55:16.303Z,5.40
2018-12-24T23:57:44.778Z,3.77
